sensor_id;sensor_type;location;lat;lon;timestamp;pressure;altitude;pressure_sealevel;temperature;humidity
55066;BME280;40964;42.114;24.220;2023-07-20T00:02:09;97394.75;;;27.76;42.61
55066;BME280;40964;42.114;24.220;2023-07-20T00:04:34;97394.84;;;27.67;42.89
55066;BME280;40964;42.114;24.220;2023-07-20T00:07:00;97381.75;;;27.57;43.08
55066;BME280;40964;42.114;24.220;2023-07-20T00:09:26;97366.34;;;27.58;43.15
55066;BME280;40964;42.114;24.220;2023-07-20T00:11:52;97367.13;;;27.46;42.89
55066;BME280;40964;42.114;24.220;2023-07-20T00:14:18;97363.66;;;27.46;42.96
55066;BME280;40964;42.114;24.220;2023-07-20T00:16:47;97371.53;;;27.51;43.13
55066;BME280;40964;42.114;24.220;2023-07-20T00:19:14;97362.97;;;27.49;43.14
55066;BME280;40964;42.114;24.220;2023-07-20T00:21:41;97354.41;;;27.47;43.05
55066;BME280;40964;42.114;24.220;2023-07-20T00:24:07;97338.09;;;27.43;43.69
55066;BME280;40964;42.114;24.220;2023-07-20T00:26:33;97331.34;;;27.37;43.29
55066;BME280;40964;42.114;24.220;2023-07-20T00:28:59;97338.44;;;27.41;44.16
55066;BME280;40964;42.114;24.220;2023-07-20T00:31:24;97342.38;;;27.44;44.50
55066;BME280;40964;42.114;24.220;2023-07-20T00:33:50;97334.97;;;27.41;44.81
55066;BME280;40964;42.114;24.220;2023-07-20T00:36:16;97352.16;;;27.36;44.94
55066;BME280;40964;42.114;24.220;2023-07-20T00:38:42;97351.13;;;27.29;44.68
55066;BME280;40964;42.114;24.220;2023-07-20T00:41:07;97352.47;;;27.23;45.12
55066;BME280;40964;42.114;24.220;2023-07-20T00:43:33;97347.97;;;27.14;46.40
55066;BME280;40964;42.114;24.220;2023-07-20T00:45:59;97355.03;;;27.07;45.90
55066;BME280;40964;42.114;24.220;2023-07-20T00:48:24;97350.94;;;27.01;45.59
55066;BME280;40964;42.114;24.220;2023-07-20T00:50:50;97342.16;;;26.92;45.52
55066;BME280;40964;42.114;24.220;2023-07-20T00:53:16;97340.78;;;26.85;46.65
55066;BME280;40964;42.114;24.220;2023-07-20T00:55:42;97349.44;;;26.79;47.91
55066;BME280;40964;42.114;24.220;2023-07-20T00:58:08;97336.91;;;26.62;47.54
55066;BME280;40964;42.114;24.220;2023-07-20T01:00:33;97344.75;;;26.55;48.25
55066;BME280;40964;42.114;24.220;2023-07-20T01:02:59;97344.81;;;26.46;49.73
55066;BME280;40964;42.114;24.220;2023-07-20T01:09:02;97331.78;;;26.27;50.45
55066;BME280;40964;42.114;24.220;2023-07-20T01:11:46;97324.28;;;26.12;50.20
55066;BME280;40964;42.114;24.220;2023-07-20T01:14:15;97321.00;;;26.07;50.59
55066;BME280;40964;42.114;24.220;2023-07-20T01:16:42;97318.56;;;25.93;51.30
55066;BME280;40964;42.114;24.220;2023-07-20T01:19:07;97313.41;;;25.79;52.13
55066;BME280;40964;42.114;24.220;2023-07-20T01:32:17;97290.72;;;25.51;53.94
55066;BME280;40964;42.114;24.220;2023-07-20T01:34:44;97282.84;;;25.45;54.97
55066;BME280;40964;42.114;24.220;2023-07-20T01:37:11;97283.31;;;25.47;54.41
55066;BME280;40964;42.114;24.220;2023-07-20T01:39:38;97283.44;;;25.51;54.68
55066;BME280;40964;42.114;24.220;2023-07-20T01:42:04;97274.44;;;25.47;55.86
55066;BME280;40964;42.114;24.220;2023-07-20T01:44:30;97276.69;;;25.45;54.50
55066;BME280;40964;42.114;24.220;2023-07-20T01:46:55;97273.50;;;25.43;55.21
55066;BME280;40964;42.114;24.220;2023-07-20T01:49:20;97274.97;;;25.40;53.54
55066;BME280;40964;42.114;24.220;2023-07-20T01:51:46;97276.06;;;25.39;54.70
55066;BME280;40964;42.114;24.220;2023-07-20T01:54:11;97267.38;;;25.34;53.63
55066;BME280;40964;42.114;24.220;2023-07-20T01:56:37;97266.28;;;25.35;53.95
55066;BME280;40964;42.114;24.220;2023-07-20T01:59:03;97264.38;;;25.35;53.34
55066;BME280;40964;42.114;24.220;2023-07-20T02:01:28;97271.34;;;25.36;53.62
55066;BME280;40964;42.114;24.220;2023-07-20T02:03:54;97262.94;;;25.38;54.29
55066;BME280;40964;42.114;24.220;2023-07-20T02:06:19;97277.38;;;25.33;54.67
55066;BME280;40964;42.114;24.220;2023-07-20T02:08:45;97277.56;;;25.28;54.13
55066;BME280;40964;42.114;24.220;2023-07-20T02:11:10;97272.63;;;25.30;53.70
55066;BME280;40964;42.114;24.220;2023-07-20T02:13:35;97278.81;;;25.31;53.70
55066;BME280;40964;42.114;24.220;2023-07-20T02:16:01;97281.84;;;25.29;53.94
55066;BME280;40964;42.114;24.220;2023-07-20T02:18:45;97284.06;;;25.27;53.81
55066;BME280;40964;42.114;24.220;2023-07-20T02:21:10;97295.00;;;25.22;54.31
55066;BME280;40964;42.114;24.220;2023-07-20T02:23:36;97286.03;;;25.09;54.01
55066;BME280;40964;42.114;24.220;2023-07-20T02:26:01;97294.28;;;25.04;54.78
55066;BME280;40964;42.114;24.220;2023-07-20T02:28:30;97284.47;;;25.00;54.56
55066;BME280;40964;42.114;24.220;2023-07-20T02:30:57;97287.63;;;25.02;54.38
55066;BME280;40964;42.114;24.220;2023-07-20T02:33:22;97281.94;;;24.95;55.12
55066;BME280;40964;42.114;24.220;2023-07-20T02:35:54;97286.06;;;24.92;55.07
55066;BME280;40964;42.114;24.220;2023-07-20T02:38:20;97285.31;;;24.83;54.80
55066;BME280;40964;42.114;24.220;2023-07-20T02:40:45;97293.22;;;24.79;54.57
55066;BME280;40964;42.114;24.220;2023-07-20T02:43:11;97294.81;;;24.80;54.45
55066;BME280;40964;42.114;24.220;2023-07-20T02:45:40;97284.69;;;24.77;54.68
55066;BME280;40964;42.114;24.220;2023-07-20T02:48:06;97279.97;;;24.74;55.72
55066;BME280;40964;42.114;24.220;2023-07-20T02:50:33;97293.25;;;24.71;55.55
55066;BME280;40964;42.114;24.220;2023-07-20T02:53:12;97297.22;;;24.73;56.32
55066;BME280;40964;42.114;24.220;2023-07-20T02:55:37;97296.25;;;24.69;56.05
55066;BME280;40964;42.114;24.220;2023-07-20T02:58:03;97290.88;;;24.69;56.38
55066;BME280;40964;42.114;24.220;2023-07-20T03:00:28;97299.59;;;24.66;58.04
55066;BME280;40964;42.114;24.220;2023-07-20T03:03:01;97283.63;;;24.52;56.29
55066;BME280;40964;42.114;24.220;2023-07-20T03:05:33;97290.63;;;24.45;57.66
55066;BME280;40964;42.114;24.220;2023-07-20T03:08:19;97287.78;;;24.32;58.39
55066;BME280;40964;42.114;24.220;2023-07-20T03:10:45;97286.19;;;24.31;57.29
55066;BME280;40964;42.114;24.220;2023-07-20T03:13:10;97288.88;;;24.31;57.12
55066;BME280;40964;42.114;24.220;2023-07-20T03:15:35;97291.06;;;24.29;57.22
55066;BME280;40964;42.114;24.220;2023-07-20T03:18:01;97287.94;;;24.36;57.36
55066;BME280;40964;42.114;24.220;2023-07-20T03:20:26;97288.56;;;24.42;57.30
55066;BME280;40964;42.114;24.220;2023-07-20T03:22:52;97274.78;;;24.43;56.73
55066;BME280;40964;42.114;24.220;2023-07-20T03:25:17;97275.44;;;24.49;56.70
55066;BME280;40964;42.114;24.220;2023-07-20T03:27:43;97267.50;;;24.52;56.16
55066;BME280;40964;42.114;24.220;2023-07-20T03:30:08;97258.16;;;24.58;56.01
55066;BME280;40964;42.114;24.220;2023-07-20T03:32:35;97253.56;;;24.59;56.10
55066;BME280;40964;42.114;24.220;2023-07-20T03:35:01;97252.00;;;24.58;56.26
55066;BME280;40964;42.114;24.220;2023-07-20T03:37:26;97251.53;;;24.56;55.82
55066;BME280;40964;42.114;24.220;2023-07-20T03:39:52;97251.34;;;24.61;56.10
55066;BME280;40964;42.114;24.220;2023-07-20T03:42:17;97246.59;;;24.67;56.88
55066;BME280;40964;42.114;24.220;2023-07-20T03:44:43;97245.31;;;24.73;57.03
55066;BME280;40964;42.114;24.220;2023-07-20T03:47:08;97246.69;;;24.87;56.50
55066;BME280;40964;42.114;24.220;2023-07-20T03:49:34;97240.50;;;24.87;56.55
55066;BME280;40964;42.114;24.220;2023-07-20T03:52:00;97240.16;;;24.97;55.67
55066;BME280;40964;42.114;24.220;2023-07-20T03:54:28;97247.25;;;25.10;54.40
55066;BME280;40964;42.114;24.220;2023-07-20T03:56:54;97254.59;;;25.31;55.46
55066;BME280;40964;42.114;24.220;2023-07-20T03:59:19;97249.06;;;25.27;55.70
55066;BME280;40964;42.114;24.220;2023-07-20T04:01:45;97250.31;;;25.30;56.42
55066;BME280;40964;42.114;24.220;2023-07-20T04:04:10;97249.19;;;25.31;56.18
55066;BME280;40964;42.114;24.220;2023-07-20T04:06:36;97257.59;;;25.29;56.39
55066;BME280;40964;42.114;24.220;2023-07-20T04:09:03;97266.75;;;25.37;55.48
55066;BME280;40964;42.114;24.220;2023-07-20T04:11:42;97268.84;;;25.31;55.92
55066;BME280;40964;42.114;24.220;2023-07-20T04:14:07;97272.41;;;25.44;56.21
55066;BME280;40964;42.114;24.220;2023-07-20T04:16:33;97277.22;;;25.59;55.35
55066;BME280;40964;42.114;24.220;2023-07-20T04:18:58;97295.22;;;25.76;53.67
55066;BME280;40964;42.114;24.220;2023-07-20T04:24:17;97290.03;;;25.92;53.78
55066;BME280;40964;42.114;24.220;2023-07-20T04:26:42;97295.50;;;26.25;51.89
55066;BME280;40964;42.114;24.220;2023-07-20T04:29:08;97296.28;;;26.58;50.44
55066;BME280;40964;42.114;24.220;2023-07-20T04:31:34;97306.03;;;26.84;49.94
55066;BME280;40964;42.114;24.220;2023-07-20T04:34:00;97288.78;;;27.09;49.77
55066;BME280;40964;42.114;24.220;2023-07-20T04:36:26;97305.44;;;27.48;49.13
55066;BME280;40964;42.114;24.220;2023-07-20T04:38:51;97315.22;;;27.65;48.95
55066;BME280;40964;42.114;24.220;2023-07-20T04:41:17;97323.91;;;27.95;47.21
55066;BME280;40964;42.114;24.220;2023-07-20T04:43:43;97328.09;;;28.20;48.25
55066;BME280;40964;42.114;24.220;2023-07-20T04:46:12;97331.59;;;28.33;46.69
55066;BME280;40964;42.114;24.220;2023-07-20T04:48:38;97321.50;;;28.46;47.44
55066;BME280;40964;42.114;24.220;2023-07-20T04:51:03;97319.25;;;28.48;46.62
55066;BME280;40964;42.114;24.220;2023-07-20T04:53:29;97314.72;;;28.52;47.37
55066;BME280;40964;42.114;24.220;2023-07-20T04:55:56;97319.72;;;28.66;48.59
55066;BME280;40964;42.114;24.220;2023-07-20T04:58:22;97329.72;;;28.77;47.50
55066;BME280;40964;42.114;24.220;2023-07-20T05:00:51;97330.09;;;28.92;46.41
55066;BME280;40964;42.114;24.220;2023-07-20T05:03:16;97320.25;;;28.99;46.38
55066;BME280;40964;42.114;24.220;2023-07-20T05:06:06;97316.50;;;29.04;46.25
55066;BME280;40964;42.114;24.220;2023-07-20T05:08:31;97324.03;;;28.82;46.20
55066;BME280;40964;42.114;24.220;2023-07-20T05:10:56;97323.75;;;28.72;46.27
55066;BME280;40964;42.114;24.220;2023-07-20T05:13:48;97322.78;;;28.92;47.67
55066;BME280;40964;42.114;24.220;2023-07-20T05:16:14;97315.56;;;28.84;46.22
55066;BME280;40964;42.114;24.220;2023-07-20T05:18:40;97323.31;;;28.98;47.83
55066;BME280;40964;42.114;24.220;2023-07-20T05:21:05;97321.81;;;29.00;46.92
55066;BME280;40964;42.114;24.220;2023-07-20T05:23:31;97307.94;;;29.02;45.72
55066;BME280;40964;42.114;24.220;2023-07-20T05:25:58;97311.88;;;29.20;46.03
55066;BME280;40964;42.114;24.220;2023-07-20T05:28:24;97309.50;;;29.19;45.81
55066;BME280;40964;42.114;24.220;2023-07-20T05:30:50;97307.84;;;29.46;45.63
55066;BME280;40964;42.114;24.220;2023-07-20T05:33:22;97286.09;;;29.58;46.46
55066;BME280;40964;42.114;24.220;2023-07-20T05:35:48;97286.16;;;29.61;44.18
55066;BME280;40964;42.114;24.220;2023-07-20T05:38:13;97283.09;;;29.63;44.17
55066;BME280;40964;42.114;24.220;2023-07-20T05:40:40;97282.66;;;29.61;43.39
55066;BME280;40964;42.114;24.220;2023-07-20T05:43:07;97280.78;;;29.81;43.83
55066;BME280;40964;42.114;24.220;2023-07-20T05:45:32;97279.66;;;30.01;43.47
55066;BME280;40964;42.114;24.220;2023-07-20T05:47:58;97280.03;;;29.64;42.50
55066;BME280;40964;42.114;24.220;2023-07-20T05:50:31;97282.56;;;29.92;43.42
55066;BME280;40964;42.114;24.220;2023-07-20T05:52:57;97269.38;;;29.91;43.15
55066;BME280;40964;42.114;24.220;2023-07-20T05:55:22;97269.75;;;30.09;43.83
55066;BME280;40964;42.114;24.220;2023-07-20T05:58:02;97269.41;;;30.10;42.20
55066;BME280;40964;42.114;24.220;2023-07-20T06:00:29;97261.81;;;30.00;41.96
55066;BME280;40964;42.114;24.220;2023-07-20T06:02:54;97267.50;;;30.11;42.33
55066;BME280;40964;42.114;24.220;2023-07-20T06:05:21;97272.47;;;30.09;42.77
55066;BME280;40964;42.114;24.220;2023-07-20T06:07:47;97269.47;;;30.33;42.74
55066;BME280;40964;42.114;24.220;2023-07-20T06:10:12;97281.41;;;30.29;44.09
55066;BME280;40964;42.114;24.220;2023-07-20T06:12:38;97278.47;;;30.18;40.82
55066;BME280;40964;42.114;24.220;2023-07-20T06:15:04;97273.03;;;30.18;41.12
55066;BME280;40964;42.114;24.220;2023-07-20T06:17:30;97280.75;;;30.16;41.19
55066;BME280;40964;42.114;24.220;2023-07-20T06:19:56;97275.75;;;30.18;40.59
55066;BME280;40964;42.114;24.220;2023-07-20T06:22:22;97268.91;;;30.43;41.43
55066;BME280;40964;42.114;24.220;2023-07-20T06:24:47;97273.81;;;30.76;40.93
55066;BME280;40964;42.114;24.220;2023-07-20T06:27:13;97269.16;;;30.77;39.21
55066;BME280;40964;42.114;24.220;2023-07-20T06:29:38;97267.56;;;30.99;39.60
55066;BME280;40964;42.114;24.220;2023-07-20T06:32:05;97254.53;;;31.31;38.21
55066;BME280;40964;42.114;24.220;2023-07-20T06:34:30;97255.31;;;31.58;39.52
55066;BME280;40964;42.114;24.220;2023-07-20T06:36:56;97255.88;;;31.71;39.19
55066;BME280;40964;42.114;24.220;2023-07-20T06:39:44;97262.53;;;31.73;38.82
55066;BME280;40964;42.114;24.220;2023-07-20T06:42:13;97257.31;;;31.12;38.50
55066;BME280;40964;42.114;24.220;2023-07-20T06:44:39;97240.22;;;31.34;38.56
55066;BME280;40964;42.114;24.220;2023-07-20T06:47:04;97256.25;;;31.69;38.63
55066;BME280;40964;42.114;24.220;2023-07-20T06:49:30;97261.28;;;31.97;37.65
55066;BME280;40964;42.114;24.220;2023-07-20T06:51:56;97261.59;;;32.22;38.70
55066;BME280;40964;42.114;24.220;2023-07-20T06:54:21;97248.69;;;32.15;39.15
55066;BME280;40964;42.114;24.220;2023-07-20T06:56:47;97265.38;;;32.14;37.70
55066;BME280;40964;42.114;24.220;2023-07-20T06:59:12;97252.16;;;32.12;39.31
55066;BME280;40964;42.114;24.220;2023-07-20T07:01:38;97249.53;;;32.19;39.37
55066;BME280;40964;42.114;24.220;2023-07-20T07:04:04;97240.44;;;32.38;37.30
55066;BME280;40964;42.114;24.220;2023-07-20T07:06:31;97238.41;;;32.32;37.61
55066;BME280;40964;42.114;24.220;2023-07-20T07:08:56;97239.63;;;32.79;38.94
55066;BME280;40964;42.114;24.220;2023-07-20T07:11:22;97242.88;;;32.51;37.16
55066;BME280;40964;42.114;24.220;2023-07-20T07:13:48;97249.19;;;32.58;37.88
55066;BME280;40964;42.114;24.220;2023-07-20T07:16:16;97250.16;;;32.80;37.25
55066;BME280;40964;42.114;24.220;2023-07-20T07:18:47;97255.31;;;32.89;37.28
55066;BME280;40964;42.114;24.220;2023-07-20T07:21:13;97257.28;;;32.51;37.41
55066;BME280;40964;42.114;24.220;2023-07-20T07:23:39;97258.41;;;32.84;37.86
55066;BME280;40964;42.114;24.220;2023-07-20T07:26:04;97244.97;;;32.64;37.02
55066;BME280;40964;42.114;24.220;2023-07-20T07:28:30;97253.13;;;32.64;38.08
55066;BME280;40964;42.114;24.220;2023-07-20T07:30:57;97255.59;;;32.80;37.52
55066;BME280;40964;42.114;24.220;2023-07-20T07:33:23;97252.59;;;32.48;37.48
55066;BME280;40964;42.114;24.220;2023-07-20T07:35:50;97248.13;;;32.33;36.48
55066;BME280;40964;42.114;24.220;2023-07-20T07:38:16;97247.03;;;32.78;37.47
55066;BME280;40964;42.114;24.220;2023-07-20T07:40:42;97233.72;;;33.14;36.37
55066;BME280;40964;42.114;24.220;2023-07-20T07:43:08;97240.75;;;33.15;35.60
55066;BME280;40964;42.114;24.220;2023-07-20T07:45:35;97251.47;;;33.38;35.33
55066;BME280;40964;42.114;24.220;2023-07-20T07:48:03;97247.88;;;33.33;36.19
55066;BME280;40964;42.114;24.220;2023-07-20T07:50:29;97237.84;;;33.41;37.03
55066;BME280;40964;42.114;24.220;2023-07-20T07:52:55;97248.47;;;33.60;35.54
55066;BME280;40964;42.114;24.220;2023-07-20T07:55:20;97230.25;;;33.79;35.24
55066;BME280;40964;42.114;24.220;2023-07-20T07:57:46;97234.91;;;33.78;34.88
55066;BME280;40964;42.114;24.220;2023-07-20T08:00:13;97238.06;;;33.84;35.35
55066;BME280;40964;42.114;24.220;2023-07-20T08:02:43;97248.31;;;34.01;35.00
55066;BME280;40964;42.114;24.220;2023-07-20T08:05:09;97257.28;;;34.02;35.21
55066;BME280;40964;42.114;24.220;2023-07-20T08:07:35;97250.69;;;34.06;34.79
55066;BME280;40964;42.114;24.220;2023-07-20T08:10:01;97255.28;;;33.92;35.85
55066;BME280;40964;42.114;24.220;2023-07-20T08:12:26;97252.19;;;33.97;34.59
55066;BME280;40964;42.114;24.220;2023-07-20T08:14:52;97267.09;;;34.21;35.03
55066;BME280;40964;42.114;24.220;2023-07-20T08:17:18;97263.94;;;34.11;35.05
55066;BME280;40964;42.114;24.220;2023-07-20T08:19:43;97253.00;;;34.04;34.55
55066;BME280;40964;42.114;24.220;2023-07-20T08:22:09;97252.09;;;33.82;34.44
55066;BME280;40964;42.114;24.220;2023-07-20T08:24:35;97260.69;;;33.84;34.42
55066;BME280;40964;42.114;24.220;2023-07-20T08:27:04;97256.63;;;34.37;35.74
55066;BME280;40964;42.114;24.220;2023-07-20T08:29:29;97257.09;;;34.60;33.64
55066;BME280;40964;42.114;24.220;2023-07-20T08:31:54;97259.91;;;34.96;33.78
55066;BME280;40964;42.114;24.220;2023-07-20T08:34:20;97259.50;;;35.05;33.31
55066;BME280;40964;42.114;24.220;2023-07-20T08:36:45;97258.69;;;34.72;33.53
55066;BME280;40964;42.114;24.220;2023-07-20T08:39:11;97258.28;;;34.77;33.65
55066;BME280;40964;42.114;24.220;2023-07-20T08:41:36;97253.97;;;34.55;34.21
55066;BME280;40964;42.114;24.220;2023-07-20T08:44:02;97256.28;;;34.46;34.75
55066;BME280;40964;42.114;24.220;2023-07-20T08:46:28;97239.59;;;34.90;32.97
55066;BME280;40964;42.114;24.220;2023-07-20T08:48:55;97244.66;;;34.91;34.35
55066;BME280;40964;42.114;24.220;2023-07-20T08:51:21;97227.06;;;35.35;33.10
55066;BME280;40964;42.114;24.220;2023-07-20T08:53:47;97243.78;;;35.73;32.28
55066;BME280;40964;42.114;24.220;2023-07-20T08:56:16;97235.16;;;35.92;33.04
55066;BME280;40964;42.114;24.220;2023-07-20T08:58:43;97231.06;;;36.29;31.69
55066;BME280;40964;42.114;24.220;2023-07-20T09:01:10;97231.06;;;36.29;31.47
55066;BME280;40964;42.114;24.220;2023-07-20T09:03:36;97229.34;;;36.56;31.87
55066;BME280;40964;42.114;24.220;2023-07-20T09:06:05;97216.84;;;36.55;31.45
55066;BME280;40964;42.114;24.220;2023-07-20T09:08:31;97209.41;;;36.59;30.72
55066;BME280;40964;42.114;24.220;2023-07-20T09:10:57;97201.09;;;36.70;29.45
55066;BME280;40964;42.114;24.220;2023-07-20T09:13:24;97196.09;;;36.58;31.27
55066;BME280;40964;42.114;24.220;2023-07-20T09:15:54;97191.72;;;36.64;30.44
55066;BME280;40964;42.114;24.220;2023-07-20T09:18:24;97205.63;;;36.32;30.30
55066;BME280;40964;42.114;24.220;2023-07-20T09:20:49;97199.44;;;36.17;30.96
55066;BME280;40964;42.114;24.220;2023-07-20T09:23:15;97191.00;;;36.60;30.10
55066;BME280;40964;42.114;24.220;2023-07-20T09:25:40;97197.25;;;37.09;31.39
55066;BME280;40964;42.114;24.220;2023-07-20T09:28:06;97193.16;;;36.83;29.31
55066;BME280;40964;42.114;24.220;2023-07-20T09:30:31;97193.31;;;37.10;28.19
55066;BME280;40964;42.114;24.220;2023-07-20T09:32:58;97190.72;;;36.96;27.86
55066;BME280;40964;42.114;24.220;2023-07-20T09:35:24;97193.91;;;36.90;27.90
55066;BME280;40964;42.114;24.220;2023-07-20T09:37:51;97164.59;;;37.25;28.50
55066;BME280;40964;42.114;24.220;2023-07-20T09:40:18;97167.28;;;37.66;29.97
55066;BME280;40964;42.114;24.220;2023-07-20T09:42:44;97167.69;;;37.31;28.30
55066;BME280;40964;42.114;24.220;2023-07-20T09:45:10;97168.47;;;37.28;28.60
55066;BME280;40964;42.114;24.220;2023-07-20T09:47:37;97171.63;;;37.64;29.24
55066;BME280;40964;42.114;24.220;2023-07-20T09:50:04;97159.94;;;37.90;28.38
55066;BME280;40964;42.114;24.220;2023-07-20T09:52:30;97155.72;;;37.82;27.45
55066;BME280;40964;42.114;24.220;2023-07-20T09:54:57;97146.72;;;37.47;27.02
55066;BME280;40964;42.114;24.220;2023-07-20T09:57:23;97155.63;;;37.21;28.33
55066;BME280;40964;42.114;24.220;2023-07-20T09:59:48;97144.94;;;37.34;27.57
55066;BME280;40964;42.114;24.220;2023-07-20T10:02:27;97133.81;;;37.44;27.14
55066;BME280;40964;42.114;24.220;2023-07-20T10:04:56;97135.84;;;38.01;28.38
55066;BME280;40964;42.114;24.220;2023-07-20T10:07:26;97136.59;;;38.05;26.41
55066;BME280;40964;42.114;24.220;2023-07-20T10:09:52;97135.03;;;38.04;26.55
55066;BME280;40964;42.114;24.220;2023-07-20T10:12:22;97137.63;;;37.88;27.03
55066;BME280;40964;42.114;24.220;2023-07-20T10:15:06;97138.53;;;37.78;28.33
55066;BME280;40964;42.114;24.220;2023-07-20T10:17:33;97142.16;;;38.02;26.65
55066;BME280;40964;42.114;24.220;2023-07-20T10:20:05;97137.56;;;38.22;28.84
55066;BME280;40964;42.114;24.220;2023-07-20T10:22:35;97138.13;;;37.80;27.66
55066;BME280;40964;42.114;24.220;2023-07-20T10:25:02;97141.69;;;37.73;28.60
55066;BME280;40964;42.114;24.220;2023-07-20T10:27:48;97141.03;;;37.28;28.27
55066;BME280;40964;42.114;24.220;2023-07-20T10:30:14;97135.25;;;37.22;28.57
55066;BME280;40964;42.114;24.220;2023-07-20T10:32:41;97131.81;;;37.11;31.53
55066;BME280;40964;42.114;24.220;2023-07-20T10:35:17;97124.88;;;37.03;30.28
55066;BME280;40964;42.114;24.220;2023-07-20T10:37:50;97115.16;;;37.32;34.40
55066;BME280;40964;42.114;24.220;2023-07-20T10:40:29;97096.75;;;37.63;33.11
55066;BME280;40964;42.114;24.220;2023-07-20T10:43:05;97106.03;;;37.76;34.79
55066;BME280;40964;42.114;24.220;2023-07-20T10:47:58;97102.91;;;38.01;30.31
55066;BME280;40964;42.114;24.220;2023-07-20T10:50:28;97107.78;;;38.17;33.32
55066;BME280;40964;42.114;24.220;2023-07-20T10:53:17;97105.66;;;38.01;33.37
55066;BME280;40964;42.114;24.220;2023-07-20T10:55:43;97108.56;;;37.60;31.10
55066;BME280;40964;42.114;24.220;2023-07-20T10:58:14;97097.94;;;37.28;31.98
55066;BME280;40964;42.114;24.220;2023-07-20T11:00:57;97104.88;;;36.61;32.58
55066;BME280;40964;42.114;24.220;2023-07-20T11:03:28;97096.09;;;36.32;31.97
55066;BME280;40964;42.114;24.220;2023-07-20T11:05:56;97098.81;;;36.35;31.82
55066;BME280;40964;42.114;24.220;2023-07-20T11:08:47;97093.06;;;36.16;30.59
55066;BME280;40964;42.114;24.220;2023-07-20T11:11:30;97088.88;;;36.00;32.48
55066;BME280;40964;42.114;24.220;2023-07-20T11:14:04;97099.94;;;35.79;34.01
55066;BME280;40964;42.114;24.220;2023-07-20T11:16:45;97088.69;;;35.55;31.18
55066;BME280;40964;42.114;24.220;2023-07-20T11:19:19;97099.06;;;35.96;34.73
55066;BME280;40964;42.114;24.220;2023-07-20T11:21:46;97093.94;;;36.02;34.25
55066;BME280;40964;42.114;24.220;2023-07-20T11:24:12;97098.84;;;36.28;35.00
55066;BME280;40964;42.114;24.220;2023-07-20T11:26:49;97098.88;;;36.25;29.49
55066;BME280;40964;42.114;24.220;2023-07-20T11:29:18;97096.84;;;35.70;29.04
55066;BME280;40964;42.114;24.220;2023-07-20T11:31:45;97090.31;;;35.46;30.82
55066;BME280;40964;42.114;24.220;2023-07-20T11:34:15;97100.56;;;35.17;30.24
55066;BME280;40964;42.114;24.220;2023-07-20T11:36:43;97100.22;;;34.90;30.68
55066;BME280;40964;42.114;24.220;2023-07-20T11:39:10;97112.72;;;34.66;31.05
55066;BME280;40964;42.114;24.220;2023-07-20T11:41:36;97116.63;;;34.61;32.58
55066;BME280;40964;42.114;24.220;2023-07-20T11:44:02;97101.00;;;34.65;31.81
55066;BME280;40964;42.114;24.220;2023-07-20T11:46:28;97100.22;;;34.58;32.04
55066;BME280;40964;42.114;24.220;2023-07-20T11:48:58;97099.47;;;34.61;32.49
55066;BME280;40964;42.114;24.220;2023-07-20T11:51:26;97097.84;;;34.31;31.60
55066;BME280;40964;42.114;24.220;2023-07-20T11:53:53;97090.03;;;34.12;32.57
55066;BME280;40964;42.114;24.220;2023-07-20T11:56:18;97092.34;;;33.96;33.69
55066;BME280;40964;42.114;24.220;2023-07-20T11:58:45;97097.44;;;33.90;34.34
55066;BME280;40964;42.114;24.220;2023-07-20T12:01:14;97109.91;;;33.98;34.33
55066;BME280;40964;42.114;24.220;2023-07-20T12:03:42;97097.50;;;34.40;37.21
55066;BME280;40964;42.114;24.220;2023-07-20T12:06:09;97082.66;;;34.87;35.48
55066;BME280;40964;42.114;24.220;2023-07-20T12:08:34;97076.78;;;34.92;35.88
55066;BME280;40964;42.114;24.220;2023-07-20T12:11:03;97073.63;;;34.87;34.31
55066;BME280;40964;42.114;24.220;2023-07-20T12:13:47;97074.47;;;34.62;33.96
55066;BME280;40964;42.114;24.220;2023-07-20T12:16:16;97059.66;;;34.70;33.85
55066;BME280;40964;42.114;24.220;2023-07-20T12:18:45;97055.72;;;34.71;33.60
55066;BME280;40964;42.114;24.220;2023-07-20T12:21:11;97051.81;;;34.83;34.13
55066;BME280;40964;42.114;24.220;2023-07-20T12:23:41;97049.34;;;35.28;32.88
55066;BME280;40964;42.114;24.220;2023-07-20T12:26:08;97038.66;;;35.62;32.75
55066;BME280;40964;42.114;24.220;2023-07-20T12:28:41;97036.91;;;35.97;33.31
55066;BME280;40964;42.114;24.220;2023-07-20T12:31:08;97030.09;;;36.16;31.46
55066;BME280;40964;42.114;24.220;2023-07-20T12:33:35;97028.09;;;36.23;31.58
55066;BME280;40964;42.114;24.220;2023-07-20T12:36:01;97026.69;;;36.04;32.02
55066;BME280;40964;42.114;24.220;2023-07-20T12:38:27;97020.66;;;36.24;31.57
55066;BME280;40964;42.114;24.220;2023-07-20T12:40:54;97022.59;;;36.23;31.99
55066;BME280;40964;42.114;24.220;2023-07-20T12:43:21;97022.59;;;36.23;31.81
55066;BME280;40964;42.114;24.220;2023-07-20T12:45:46;97019.75;;;35.89;32.46
55066;BME280;40964;42.114;24.220;2023-07-20T12:48:12;97022.97;;;36.25;31.69
55066;BME280;40964;42.114;24.220;2023-07-20T12:50:38;97025.25;;;36.34;32.21
55066;BME280;40964;42.114;24.220;2023-07-20T12:53:03;97009.81;;;36.54;33.04
55066;BME280;40964;42.114;24.220;2023-07-20T12:55:29;97003.72;;;36.77;32.09
55066;BME280;40964;42.114;24.220;2023-07-20T12:57:55;97003.41;;;36.68;31.47
55066;BME280;40964;42.114;24.220;2023-07-20T13:00:21;97003.25;;;36.82;32.96
55066;BME280;40964;42.114;24.220;2023-07-20T13:02:50;96999.53;;;37.03;31.50
55066;BME280;40964;42.114;24.220;2023-07-20T13:05:16;96998.69;;;37.06;30.19
55066;BME280;40964;42.114;24.220;2023-07-20T13:07:42;96998.53;;;36.83;31.67
55066;BME280;40964;42.114;24.220;2023-07-20T13:10:09;96999.84;;;36.30;31.10
55066;BME280;40964;42.114;24.220;2023-07-20T13:12:35;97004.94;;;36.28;31.05